sensor_id;sensor_type;location;lat;lon;timestamp;P1;durP1;ratioP1;P2;durP2;ratioP2
26872;SDS011;14445;53.056;4.804;2022-07-29T00:00:28;1.15;;;0.90;;
26872;SDS011;14445;53.056;4.804;2022-07-29T00:02:54;2.10;;;1.10;;
26872;SDS011;14445;53.056;4.804;2022-07-29T00:05:19;1.10;;;1.00;;
26872;SDS011;14445;53.056;4.804;2022-07-29T00:07:45;2.08;;;1.00;;
26872;SDS011;14445;53.056;4.804;2022-07-29T00:10:11;1.30;;;1.08;;
26872;SDS011;14445;53.056;4.804;2022-07-29T00:12:36;1.90;;;1.00;;
26872;SDS011;14445;53.056;4.804;2022-07-29T00:15:02;2.00;;;1.08;;
26872;SDS011;14445;53.056;4.804;2022-07-29T00:17:29;1.42;;;1.10;;
26872;SDS011;14445;53.056;4.804;2022-07-29T00:19:54;1.20;;;0.80;;
26872;SDS011;14445;53.056;4.804;2022-07-29T00:22:20;1.50;;;0.90;;
26872;SDS011;14445;53.056;4.804;2022-07-29T00:24:47;1.88;;;0.90;;
26872;SDS011;14445;53.056;4.804;2022-07-29T00:27:13;1.30;;;0.90;;
26872;SDS011;14445;53.056;4.804;2022-07-29T00:29:39;2.20;;;1.00;;
26872;SDS011;14445;53.056;4.804;2022-07-29T00:32:04;2.97;;;1.00;;
26872;SDS011;14445;53.056;4.804;2022-07-29T00:34:30;1.40;;;1.00;;
26872;SDS011;14445;53.056;4.804;2022-07-29T00:37:14;0.80;;;0.80;;
26872;SDS011;14445;53.056;4.804;2022-07-29T00:39:40;1.60;;;0.80;;
26872;SDS011;14445;53.056;4.804;2022-07-29T00:42:05;1.15;;;1.00;;
26872;SDS011;14445;53.056;4.804;2022-07-29T00:44:35;1.95;;;1.00;;
26872;SDS011;14445;53.056;4.804;2022-07-29T00:47:04;0.98;;;0.85;;
26872;SDS011;14445;53.056;4.804;2022-07-29T00:49:30;1.67;;;1.00;;
26872;SDS011;14445;53.056;4.804;2022-07-29T00:51:56;1.05;;;0.77;;
26872;SDS011;14445;53.056;4.804;2022-07-29T00:54:22;0.93;;;0.85;;
26872;SDS011;14445;53.056;4.804;2022-07-29T00:56:48;0.80;;;0.80;;
26872;SDS011;14445;53.056;4.804;2022-07-29T00:59:14;1.00;;;0.90;;
26872;SDS011;14445;53.056;4.804;2022-07-29T01:01:39;1.25;;;1.00;;
26872;SDS011;14445;53.056;4.804;2022-07-29T01:04:05;1.63;;;0.90;;
26872;SDS011;14445;53.056;4.804;2022-07-29T01:06:32;2.78;;;1.05;;
26872;SDS011;14445;53.056;4.804;2022-07-29T01:08:58;0.85;;;0.85;;
26872;SDS011;14445;53.056;4.804;2022-07-29T01:11:25;1.00;;;0.90;;
26872;SDS011;14445;53.056;4.804;2022-07-29T01:13:50;0.85;;;0.85;;
26872;SDS011;14445;53.056;4.804;2022-07-29T01:16:34;1.10;;;0.90;;
26872;SDS011;14445;53.056;4.804;2022-07-29T01:22:15;1.25;;;1.00;;
26872;SDS011;14445;53.056;4.804;2022-07-29T01:30:22;0.95;;;0.90;;
26872;SDS011;14445;53.056;4.804;2022-07-29T01:32:52;1.08;;;0.70;;
26872;SDS011;14445;53.056;4.804;2022-07-29T01:35:42;1.33;;;0.90;;
26872;SDS011;14445;53.056;4.804;2022-07-29T01:38:09;1.77;;;1.10;;
26872;SDS011;14445;53.056;4.804;2022-07-29T01:40:54;0.95;;;0.80;;
26872;SDS011;14445;53.056;4.804;2022-07-29T01:43:51;1.95;;;1.00;;
26872;SDS011;14445;53.056;4.804;2022-07-29T01:46:22;3.30;;;1.05;;
26872;SDS011;14445;53.056;4.804;2022-07-29T01:49:06;1.00;;;0.90;;
26872;SDS011;14445;53.056;4.804;2022-07-29T01:51:38;1.50;;;1.00;;
26872;SDS011;14445;53.056;4.804;2022-07-29T01:54:14;1.48;;;0.95;;
26872;SDS011;14445;53.056;4.804;2022-07-29T01:56:59;0.95;;;0.90;;
26872;SDS011;14445;53.056;4.804;2022-07-29T01:59:25;1.33;;;1.00;;
26872;SDS011;14445;53.056;4.804;2022-07-29T02:01:53;1.10;;;1.00;;
26872;SDS011;14445;53.056;4.804;2022-07-29T02:04:20;1.25;;;0.90;;
26872;SDS011;14445;53.056;4.804;2022-07-29T02:06:47;1.70;;;1.20;;
26872;SDS011;14445;53.056;4.804;2022-07-29T02:09:15;2.40;;;1.00;;
26872;SDS011;14445;53.056;4.804;2022-07-29T02:11:45;1.27;;;1.02;;
26872;SDS011;14445;53.056;4.804;2022-07-29T02:14:15;1.30;;;0.90;;
26872;SDS011;14445;53.056;4.804;2022-07-29T02:16:44;1.15;;;1.00;;
26872;SDS011;14445;53.056;4.804;2022-07-29T02:19:11;1.40;;;0.88;;
26872;SDS011;14445;53.056;4.804;2022-07-29T02:21:38;1.75;;;1.10;;
26872;SDS011;14445;53.056;4.804;2022-07-29T02:24:05;1.15;;;1.00;;
26872;SDS011;14445;53.056;4.804;2022-07-29T02:26:33;1.25;;;1.00;;
26872;SDS011;14445;53.056;4.804;2022-07-29T02:28:59;2.08;;;1.00;;
26872;SDS011;14445;53.056;4.804;2022-07-29T02:31:26;1.25;;;1.00;;
26872;SDS011;14445;53.056;4.804;2022-07-29T02:33:56;1.65;;;0.95;;
26872;SDS011;14445;53.056;4.804;2022-07-29T02:36:23;1.08;;;0.95;;
26872;SDS011;14445;53.056;4.804;2022-07-29T02:38:50;1.20;;;1.00;;
26872;SDS011;14445;53.056;4.804;2022-07-29T02:41:28;1.10;;;1.00;;
26872;SDS011;14445;53.056;4.804;2022-07-29T02:44:05;2.17;;;1.00;;
26872;SDS011;14445;53.056;4.804;2022-07-29T02:46:35;1.02;;;0.93;;
26872;SDS011;14445;53.056;4.804;2022-07-29T02:51:41;1.23;;;0.90;;
26872;SDS011;14445;53.056;4.804;2022-07-29T02:54:10;1.00;;;0.90;;
26872;SDS011;14445;53.056;4.804;2022-07-29T02:56:43;3.03;;;0.90;;
26872;SDS011;14445;53.056;4.804;2022-07-29T02:59:10;1.38;;;0.90;;
26872;SDS011;14445;53.056;4.804;2022-07-29T03:01:38;1.67;;;0.90;;
26872;SDS011;14445;53.056;4.804;2022-07-29T03:04:08;1.27;;;1.00;;
26872;SDS011;14445;53.056;4.804;2022-07-29T03:06:36;1.75;;;1.00;;
26872;SDS011;14445;53.056;4.804;2022-07-29T03:09:03;1.10;;;0.90;;
26872;SDS011;14445;53.056;4.804;2022-07-29T03:11:29;1.63;;;1.00;;
26872;SDS011;14445;53.056;4.804;2022-07-29T03:13:55;1.13;;;0.90;;
26872;SDS011;14445;53.056;4.804;2022-07-29T03:16:21;1.10;;;1.00;;
26872;SDS011;14445;53.056;4.804;2022-07-29T03:18:48;1.60;;;1.15;;
26872;SDS011;14445;53.056;4.804;2022-07-29T03:21:15;1.35;;;1.00;;
26872;SDS011;14445;53.056;4.804;2022-07-29T03:23:44;1.15;;;1.00;;
26872;SDS011;14445;53.056;4.804;2022-07-29T03:26:12;1.30;;;1.10;;
26872;SDS011;14445;53.056;4.804;2022-07-29T03:28:38;1.10;;;1.00;;
26872;SDS011;14445;53.056;4.804;2022-07-29T03:31:04;1.27;;;1.17;;
26872;SDS011;14445;53.056;4.804;2022-07-29T03:33:29;2.15;;;1.00;;
26872;SDS011;14445;53.056;4.804;2022-07-29T03:35:55;1.25;;;1.15;;
26872;SDS011;14445;53.056;4.804;2022-07-29T03:38:21;2.47;;;1.10;;
26872;SDS011;14445;53.056;4.804;2022-07-29T03:40:51;1.40;;;1.00;;
26872;SDS011;14445;53.056;4.804;2022-07-29T03:43:20;1.27;;;1.00;;
26872;SDS011;14445;53.056;4.804;2022-07-29T03:45:49;1.30;;;1.10;;
26872;SDS011;14445;53.056;4.804;2022-07-29T03:48:19;1.40;;;1.00;;
26872;SDS011;14445;53.056;4.804;2022-07-29T03:50:47;1.70;;;1.10;;
26872;SDS011;14445;53.056;4.804;2022-07-29T03:53:14;1.45;;;1.10;;
26872;SDS011;14445;53.056;4.804;2022-07-29T03:55:41;3.50;;;1.40;;
26872;SDS011;14445;53.056;4.804;2022-07-29T03:58:10;1.60;;;1.08;;
26872;SDS011;14445;53.056;4.804;2022-07-29T04:00:37;1.25;;;0.90;;
26872;SDS011;14445;53.056;4.804;2022-07-29T04:03:03;1.35;;;1.00;;
26872;SDS011;14445;53.056;4.804;2022-07-29T04:05:30;1.98;;;1.10;;
26872;SDS011;14445;53.056;4.804;2022-07-29T04:07:55;1.08;;;0.98;;
26872;SDS011;14445;53.056;4.804;2022-07-29T04:10:21;1.60;;;1.02;;
26872;SDS011;14445;53.056;4.804;2022-07-29T04:12:50;1.23;;;1.13;;
26872;SDS011;14445;53.056;4.804;2022-07-29T04:15:16;1.38;;;0.90;;
26872;SDS011;14445;53.056;4.804;2022-07-29T04:17:41;1.48;;;1.00;;
26872;SDS011;14445;53.056;4.804;2022-07-29T04:20:07;1.90;;;1.10;;
26872;SDS011;14445;53.056;4.804;2022-07-29T04:22:33;2.88;;;1.15;;
26872;SDS011;14445;53.056;4.804;2022-07-29T04:24:58;1.45;;;1.27;;
26872;SDS011;14445;53.056;4.804;2022-07-29T04:27:24;1.83;;;1.08;;
26872;SDS011;14445;53.056;4.804;2022-07-29T04:29:50;3.08;;;1.13;;
26872;SDS011;14445;53.056;4.804;2022-07-29T04:32:15;2.45;;;1.10;;
26872;SDS011;14445;53.056;4.804;2022-07-29T04:34:40;1.35;;;1.20;;
26872;SDS011;14445;53.056;4.804;2022-07-29T04:37:06;2.17;;;1.27;;
26872;SDS011;14445;53.056;4.804;2022-07-29T04:39:32;1.73;;;1.30;;
26872;SDS011;14445;53.056;4.804;2022-07-29T04:41:57;2.05;;;1.30;;
26872;SDS011;14445;53.056;4.804;2022-07-29T04:44:23;1.48;;;1.25;;
26872;SDS011;14445;53.056;4.804;2022-07-29T04:46:48;1.30;;;1.20;;
26872;SDS011;14445;53.056;4.804;2022-07-29T04:49:14;1.20;;;1.10;;
26872;SDS011;14445;53.056;4.804;2022-07-29T04:51:39;1.70;;;1.23;;
26872;SDS011;14445;53.056;4.804;2022-07-29T04:54:05;2.42;;;1.15;;
26872;SDS011;14445;53.056;4.804;2022-07-29T04:56:31;1.65;;;1.20;;
26872;SDS011;14445;53.056;4.804;2022-07-29T04:58:56;3.35;;;1.40;;
26872;SDS011;14445;53.056;4.804;2022-07-29T05:01:22;1.17;;;1.00;;
26872;SDS011;14445;53.056;4.804;2022-07-29T05:03:47;1.50;;;1.00;;
26872;SDS011;14445;53.056;4.804;2022-07-29T05:06:13;1.67;;;1.20;;
26872;SDS011;14445;53.056;4.804;2022-07-29T05:08:39;1.45;;;1.05;;
26872;SDS011;14445;53.056;4.804;2022-07-29T05:11:04;1.20;;;1.00;;
26872;SDS011;14445;53.056;4.804;2022-07-29T05:13:30;2.13;;;1.30;;
26872;SDS011;14445;53.056;4.804;2022-07-29T05:15:55;2.08;;;1.30;;
26872;SDS011;14445;53.056;4.804;2022-07-29T05:18:23;1.65;;;1.38;;
26872;SDS011;14445;53.056;4.804;2022-07-29T05:20:49;2.40;;;1.35;;
26872;SDS011;14445;53.056;4.804;2022-07-29T05:23:14;2.67;;;1.27;;
26872;SDS011;14445;53.056;4.804;2022-07-29T05:25:40;1.65;;;1.20;;
26872;SDS011;14445;53.056;4.804;2022-07-29T05:28:06;2.33;;;1.30;;
26872;SDS011;14445;53.056;4.804;2022-07-29T05:30:32;2.03;;;1.40;;
26872;SDS011;14445;53.056;4.804;2022-07-29T05:32:57;1.95;;;1.13;;
26872;SDS011;14445;53.056;4.804;2022-07-29T05:35:22;2.03;;;1.23;;
26872;SDS011;14445;53.056;4.804;2022-07-29T05:37:48;1.27;;;0.90;;
26872;SDS011;14445;53.056;4.804;2022-07-29T05:40:14;1.95;;;1.10;;
26872;SDS011;14445;53.056;4.804;2022-07-29T05:42:39;1.77;;;1.27;;
26872;SDS011;14445;53.056;4.804;2022-07-29T05:45:05;3.25;;;1.60;;
26872;SDS011;14445;53.056;4.804;2022-07-29T05:47:31;2.13;;;1.20;;
26872;SDS011;14445;53.056;4.804;2022-07-29T05:49:56;2.30;;;1.25;;
26872;SDS011;14445;53.056;4.804;2022-07-29T05:52:22;3.17;;;1.20;;
26872;SDS011;14445;53.056;4.804;2022-07-29T05:54:48;2.17;;;1.33;;
26872;SDS011;14445;53.056;4.804;2022-07-29T05:57:21;2.15;;;1.40;;
26872;SDS011;14445;53.056;4.804;2022-07-29T05:59:48;2.55;;;1.30;;
26872;SDS011;14445;53.056;4.804;2022-07-29T06:02:15;4.35;;;1.65;;
26872;SDS011;14445;53.056;4.804;2022-07-29T06:04:41;4.47;;;1.58;;
26872;SDS011;14445;53.056;4.804;2022-07-29T06:07:06;5.43;;;1.63;;
26872;SDS011;14445;53.056;4.804;2022-07-29T06:09:32;5.97;;;1.77;;
26872;SDS011;14445;53.056;4.804;2022-07-29T06:11:58;1.95;;;1.30;;
26872;SDS011;14445;53.056;4.804;2022-07-29T06:14:24;2.63;;;1.30;;
26872;SDS011;14445;53.056;4.804;2022-07-29T06:16:50;1.52;;;1.20;;
26872;SDS011;14445;53.056;4.804;2022-07-29T06:19:16;1.50;;;1.20;;
26872;SDS011;14445;53.056;4.804;2022-07-29T06:21:42;2.72;;;1.25;;
26872;SDS011;14445;53.056;4.804;2022-07-29T06:24:09;1.42;;;1.10;;
26872;SDS011;14445;53.056;4.804;2022-07-29T06:26:39;2.50;;;1.30;;
26872;SDS011;14445;53.056;4.804;2022-07-29T06:29:06;3.10;;;1.40;;
26872;SDS011;14445;53.056;4.804;2022-07-29T06:31:32;3.95;;;1.10;;
26872;SDS011;14445;53.056;4.804;2022-07-29T06:33:58;2.65;;;1.23;;
26872;SDS011;14445;53.056;4.804;2022-07-29T06:36:23;2.42;;;1.35;;
26872;SDS011;14445;53.056;4.804;2022-07-29T06:38:49;2.63;;;1.23;;
26872;SDS011;14445;53.056;4.804;2022-07-29T06:41:14;3.05;;;1.38;;
26872;SDS011;14445;53.056;4.804;2022-07-29T06:43:41;2.28;;;1.33;;
26872;SDS011;14445;53.056;4.804;2022-07-29T06:46:09;2.33;;;1.30;;
26872;SDS011;14445;53.056;4.804;2022-07-29T06:48:38;3.30;;;1.38;;
26872;SDS011;14445;53.056;4.804;2022-07-29T06:51:04;2.40;;;1.30;;
26872;SDS011;14445;53.056;4.804;2022-07-29T06:53:31;1.42;;;1.15;;
26872;SDS011;14445;53.056;4.804;2022-07-29T06:55:58;1.70;;;1.20;;
26872;SDS011;14445;53.056;4.804;2022-07-29T06:58:25;4.10;;;1.40;;
26872;SDS011;14445;53.056;4.804;2022-07-29T07:00:51;4.20;;;1.40;;
26872;SDS011;14445;53.056;4.804;2022-07-29T07:03:17;3.28;;;1.42;;
26872;SDS011;14445;53.056;4.804;2022-07-29T07:05:44;2.15;;;1.35;;
26872;SDS011;14445;53.056;4.804;2022-07-29T07:08:11;2.65;;;1.35;;
26872;SDS011;14445;53.056;4.804;2022-07-29T07:10:38;3.42;;;1.33;;
26872;SDS011;14445;53.056;4.804;2022-07-29T07:13:04;2.80;;;1.42;;
26872;SDS011;14445;53.056;4.804;2022-07-29T07:15:30;3.60;;;1.40;;
26872;SDS011;14445;53.056;4.804;2022-07-29T07:17:56;2.97;;;1.30;;
26872;SDS011;14445;53.056;4.804;2022-07-29T07:20:22;2.42;;;1.27;;
26872;SDS011;14445;53.056;4.804;2022-07-29T07:22:48;2.80;;;1.40;;
26872;SDS011;14445;53.056;4.804;2022-07-29T07:25:14;4.15;;;1.63;;
26872;SDS011;14445;53.056;4.804;2022-07-29T07:27:39;2.65;;;1.42;;
26872;SDS011;14445;53.056;4.804;2022-07-29T07:30:06;3.42;;;1.23;;
26872;SDS011;14445;53.056;4.804;2022-07-29T07:32:33;2.33;;;1.50;;
26872;SDS011;14445;53.056;4.804;2022-07-29T07:34:59;4.35;;;1.65;;
26872;SDS011;14445;53.056;4.804;2022-07-29T07:37:25;3.15;;;1.40;;
26872;SDS011;14445;53.056;4.804;2022-07-29T07:39:51;3.38;;;1.60;;
26872;SDS011;14445;53.056;4.804;2022-07-29T07:42:17;4.60;;;1.50;;
26872;SDS011;14445;53.056;4.804;2022-07-29T07:44:43;4.35;;;1.45;;
26872;SDS011;14445;53.056;4.804;2022-07-29T07:47:10;3.63;;;1.50;;
26872;SDS011;14445;53.056;4.804;2022-07-29T07:49:39;4.18;;;1.60;;
26872;SDS011;14445;53.056;4.804;2022-07-29T07:52:05;3.47;;;1.65;;
26872;SDS011;14445;53.056;4.804;2022-07-29T07:54:30;2.75;;;1.40;;
26872;SDS011;14445;53.056;4.804;2022-07-29T07:56:56;4.78;;;1.70;;
26872;SDS011;14445;53.056;4.804;2022-07-29T07:59:22;3.42;;;1.42;;
26872;SDS011;14445;53.056;4.804;2022-07-29T08:01:48;2.63;;;1.40;;
26872;SDS011;14445;53.056;4.804;2022-07-29T08:04:14;4.30;;;1.67;;
26872;SDS011;14445;53.056;4.804;2022-07-29T08:06:40;3.90;;;1.52;;
26872;SDS011;14445;53.056;4.804;2022-07-29T08:09:05;2.75;;;1.30;;
26872;SDS011;14445;53.056;4.804;2022-07-29T08:11:31;3.58;;;1.40;;
26872;SDS011;14445;53.056;4.804;2022-07-29T08:13:57;3.85;;;1.50;;
26872;SDS011;14445;53.056;4.804;2022-07-29T08:16:23;2.85;;;1.40;;
26872;SDS011;14445;53.056;4.804;2022-07-29T08:18:50;3.00;;;1.35;;
26872;SDS011;14445;53.056;4.804;2022-07-29T08:21:16;3.25;;;1.38;;
26872;SDS011;14445;53.056;4.804;2022-07-29T08:23:44;4.13;;;1.50;;
26872;SDS011;14445;53.056;4.804;2022-07-29T08:26:12;4.00;;;1.50;;
26872;SDS011;14445;53.056;4.804;2022-07-29T08:28:38;4.00;;;1.58;;
26872;SDS011;14445;53.056;4.804;2022-07-29T08:31:05;3.70;;;1.45;;
26872;SDS011;14445;53.056;4.804;2022-07-29T08:33:31;3.10;;;1.48;;
26872;SDS011;14445;53.056;4.804;2022-07-29T08:35:57;3.75;;;1.45;;
26872;SDS011;14445;53.056;4.804;2022-07-29T08:38:22;6.00;;;1.50;;
26872;SDS011;14445;53.056;4.804;2022-07-29T08:40:48;4.15;;;1.50;;
26872;SDS011;14445;53.056;4.804;2022-07-29T08:43:14;3.25;;;1.50;;
26872;SDS011;14445;53.056;4.804;2022-07-29T08:45:44;3.00;;;1.33;;
26872;SDS011;14445;53.056;4.804;2022-07-29T08:48:11;4.47;;;1.60;;
26872;SDS011;14445;53.056;4.804;2022-07-29T08:50:48;4.28;;;1.73;;
26872;SDS011;14445;53.056;4.804;2022-07-29T08:53:17;4.45;;;1.50;;
26872;SDS011;14445;53.056;4.804;2022-07-29T08:55:44;2.58;;;1.50;;
26872;SDS011;14445;53.056;4.804;2022-07-29T08:58:14;3.65;;;1.52;;
26872;SDS011;14445;53.056;4.804;2022-07-29T09:01:02;2.90;;;1.50;;
26872;SDS011;14445;53.056;4.804;2022-07-29T09:03:31;6.38;;;1.60;;
26872;SDS011;14445;53.056;4.804;2022-07-29T09:05:59;3.00;;;1.60;;
26872;SDS011;14445;53.056;4.804;2022-07-29T09:08:26;3.25;;;1.65;;
26872;SDS011;14445;53.056;4.804;2022-07-29T09:10:53;4.28;;;1.70;;
26872;SDS011;14445;53.056;4.804;2022-07-29T09:13:20;3.05;;;1.55;;
26872;SDS011;14445;53.056;4.804;2022-07-29T09:15:47;2.72;;;1.55;;
26872;SDS011;14445;53.056;4.804;2022-07-29T09:18:26;2.55;;;1.50;;
26872;SDS011;14445;53.056;4.804;2022-07-29T09:21:07;3.22;;;1.50;;
26872;SDS011;14445;53.056;4.804;2022-07-29T09:24:00;3.72;;;1.83;;
26872;SDS011;14445;53.056;4.804;2022-07-29T09:26:36;2.85;;;1.45;;
26872;SDS011;14445;53.056;4.804;2022-07-29T09:29:09;3.13;;;1.45;;
26872;SDS011;14445;53.056;4.804;2022-07-29T09:31:52;3.85;;;1.38;;
26872;SDS011;14445;53.056;4.804;2022-07-29T09:34:23;2.25;;;1.55;;
26872;SDS011;14445;53.056;4.804;2022-07-29T09:36:50;2.97;;;1.42;;
26872;SDS011;14445;53.056;4.804;2022-07-29T09:39:26;3.45;;;1.52;;
26872;SDS011;14445;53.056;4.804;2022-07-29T09:41:55;2.15;;;1.40;;
26872;SDS011;14445;53.056;4.804;2022-07-29T09:44:22;3.00;;;1.65;;
26872;SDS011;14445;53.056;4.804;2022-07-29T09:49:20;3.80;;;1.75;;
26872;SDS011;14445;53.056;4.804;2022-07-29T09:51:46;4.10;;;1.48;;
26872;SDS011;14445;53.056;4.804;2022-07-29T09:54:21;3.90;;;1.75;;
26872;SDS011;14445;53.056;4.804;2022-07-29T09:56:47;4.38;;;1.50;;
26872;SDS011;14445;53.056;4.804;2022-07-29T09:59:13;4.45;;;1.80;;
26872;SDS011;14445;53.056;4.804;2022-07-29T10:01:38;3.75;;;1.65;;
26872;SDS011;14445;53.056;4.804;2022-07-29T10:04:04;2.92;;;1.40;;
26872;SDS011;14445;53.056;4.804;2022-07-29T10:06:30;3.08;;;1.60;;
26872;SDS011;14445;53.056;4.804;2022-07-29T10:09:06;5.82;;;1.88;;
26872;SDS011;14445;53.056;4.804;2022-07-29T10:11:33;3.30;;;1.80;;
26872;SDS011;14445;53.056;4.804;2022-07-29T10:13:59;4.22;;;1.63;;
26872;SDS011;14445;53.056;4.804;2022-07-29T10:16:27;5.13;;;1.73;;
26872;SDS011;14445;53.056;4.804;2022-07-29T10:18:57;3.95;;;1.70;;
26872;SDS011;14445;53.056;4.804;2022-07-29T10:21:24;4.47;;;1.70;;
26872;SDS011;14445;53.056;4.804;2022-07-29T10:23:50;3.05;;;1.45;;
26872;SDS011;14445;53.056;4.804;2022-07-29T10:26:17;2.97;;;1.85;;
26872;SDS011;14445;53.056;4.804;2022-07-29T10:28:43;3.20;;;1.55;;
26872;SDS011;14445;53.056;4.804;2022-07-29T10:31:12;3.00;;;1.67;;
26872;SDS011;14445;53.056;4.804;2022-07-29T10:34:04;3.80;;;1.63;;
26872;SDS011;14445;53.056;4.804;2022-07-29T10:42:20;3.42;;;1.42;;
26872;SDS011;14445;53.056;4.804;2022-07-29T10:44:49;3.17;;;1.60;;
26872;SDS011;14445;53.056;4.804;2022-07-29T10:47:19;5.78;;;1.73;;
26872;SDS011;14445;53.056;4.804;2022-07-29T10:49:56;3.65;;;1.58;;
26872;SDS011;14445;53.056;4.804;2022-07-29T10:55:30;5.70;;;1.80;;
26872;SDS011;14445;53.056;4.804;2022-07-29T10:58:11;3.70;;;1.70;;
26872;SDS011;14445;53.056;4.804;2022-07-29T11:00:37;3.60;;;1.60;;
26872;SDS011;14445;53.056;4.804;2022-07-29T11:03:02;4.88;;;1.80;;
26872;SDS011;14445;53.056;4.804;2022-07-29T11:05:28;2.88;;;1.50;;
26872;SDS011;14445;53.056;4.804;2022-07-29T11:10:48;3.00;;;1.40;;
26872;SDS011;14445;53.056;4.804;2022-07-29T11:16:08;4.90;;;1.90;;
26872;SDS011;14445;53.056;4.804;2022-07-29T11:18:34;4.10;;;1.80;;
26872;SDS011;14445;53.056;4.804;2022-07-29T11:20:59;3.10;;;1.65;;
26872;SDS011;14445;53.056;4.804;2022-07-29T11:23:26;3.35;;;1.77;;
26872;SDS011;14445;53.056;4.804;2022-07-29T11:26:19;4.10;;;1.58;;
26872;SDS011;14445;53.056;4.804;2022-07-29T11:31:16;2.85;;;1.77;;
26872;SDS011;14445;53.056;4.804;2022-07-29T11:33:44;4.55;;;1.70;;
26872;SDS011;14445;53.056;4.804;2022-07-29T11:36:11;3.33;;;1.75;;
26872;SDS011;14445;53.056;4.804;2022-07-29T11:38:38;3.45;;;1.60;;
26872;SDS011;14445;53.056;4.804;2022-07-29T11:41:22;3.05;;;1.60;;
26872;SDS011;14445;53.056;4.804;2022-07-29T11:49:20;2.45;;;1.50;;
26872;SDS011;14445;53.056;4.804;2022-07-29T11:51:53;3.58;;;1.65;;
26872;SDS011;14445;53.056;4.804;2022-07-29T11:54:30;3.15;;;1.40;;
26872;SDS011;14445;53.056;4.804;2022-07-29T11:56:58;2.13;;;1.50;;
26872;SDS011;14445;53.056;4.804;2022-07-29T11:59:24;5.88;;;1.58;;
26872;SDS011;14445;53.056;4.804;2022-07-29T12:01:54;2.45;;;1.30;;
26872;SDS011;14445;53.056;4.804;2022-07-29T12:04:20;3.65;;;1.60;;
26872;SDS011;14445;53.056;4.804;2022-07-29T12:06:49;4.47;;;1.60;;
26872;SDS011;14445;53.056;4.804;2022-07-29T12:09:15;2.42;;;1.30;;
26872;SDS011;14445;53.056;4.804;2022-07-29T12:11:42;3.75;;;1.33;;
26872;SDS011;14445;53.056;4.804;2022-07-29T12:14:08;3.38;;;1.60;;
26872;SDS011;14445;53.056;4.804;2022-07-29T12:16:36;3.55;;;1.40;;
26872;SDS011;14445;53.056;4.804;2022-07-29T12:19:04;4.20;;;1.48;;
26872;SDS011;14445;53.056;4.804;2022-07-29T12:21:43;3.63;;;1.60;;
26872;SDS011;14445;53.056;4.804;2022-07-29T12:24:09;2.83;;;1.50;;
26872;SDS011;14445;53.056;4.804;2022-07-29T12:26:35;3.25;;;1.50;;
26872;SDS011;14445;53.056;4.804;2022-07-29T12:29:02;4.13;;;1.60;;
26872;SDS011;14445;53.056;4.804;2022-07-29T12:31:28;7.55;;;1.77;;
26872;SDS011;14445;53.056;4.804;2022-07-29T12:33:53;3.13;;;1.58;;
26872;SDS011;14445;53.056;4.804;2022-07-29T12:36:19;2.53;;;1.55;;
26872;SDS011;14445;53.056;4.804;2022-07-29T12:38:45;3.50;;;1.50;;
26872;SDS011;14445;53.056;4.804;2022-07-29T12:41:11;3.80;;;1.70;;
26872;SDS011;14445;53.056;4.804;2022-07-29T12:43:37;3.60;;;1.50;;
26872;SDS011;14445;53.056;4.804;2022-07-29T12:46:13;4.13;;;1.65;;
26872;SDS011;14445;53.056;4.804;2022-07-29T12:48:40;2.70;;;1.70;;
26872;SDS011;14445;53.056;4.804;2022-07-29T12:51:07;4.32;;;1.98;;
26872;SDS011;14445;53.056;4.804;2022-07-29T12:53:34;2.55;;;1.30;;
26872;SDS011;14445;53.056;4.804;2022-07-29T12:56:00;3.00;;;1.60;;
26872;SDS011;14445;53.056;4.804;2022-07-29T12:58:36;4.22;;;1.80;;
26872;SDS011;14445;53.056;4.804;2022-07-29T13:01:06;4.13;;;1.95;;
26872;SDS011;14445;53.056;4.804;2022-07-29T13:09:09;3.65;;;1.60;;
26872;SDS011;14445;53.056;4.804;2022-07-29T13:11:42;3.17;;;1.55;;
26872;SDS011;14445;53.056;4.804;2022-07-29T13:14:11;4.05;;;1.80;;
26872;SDS011;14445;53.056;4.804;2022-07-29T13:19:37;4.43;;;1.92;;
26872;SDS011;14445;53.056;4.804;2022-07-29T13:22:08;4.30;;;1.90;;
26872;SDS011;14445;53.056;4.804;2022-07-29T13:24:45;4.15;;;1.55;;
26872;SDS011;14445;53.056;4.804;2022-07-29T13:27:16;2.63;;;1.60;;
26872;SDS011;14445;53.056;4.804;2022-07-29T13:29:52;5.00;;;1.95;;
26872;SDS011;14445;53.056;4.804;2022-07-29T13:32:21;5.65;;;1.80;;
26872;SDS011;14445;53.056;4.804;2022-07-29T13:34:47;2.97;;;1.73;;
26872;SDS011;14445;53.056;4.804;2022-07-29T13:37:13;4.13;;;1.90;;
26872;SDS011;14445;53.056;4.804;2022-07-29T13:39:39;2.40;;;1.60;;
26872;SDS011;14445;53.056;4.804;2022-07-29T13:42:04;5.53;;;2.13;;
26872;SDS011;14445;53.056;4.804;2022-07-29T13:44:31;3.25;;;1.40;;
26872;SDS011;14445;53.056;4.804;2022-07-29T13:46:57;4.70;;;2.00;;
26872;SDS011;14445;53.056;4.804;2022-07-29T13:49:23;3.60;;;1.90;;
26872;SDS011;14445;53.056;4.804;2022-07-29T13:51:50;2.58;;;1.83;;
26872;SDS011;14445;53.056;4.804;2022-07-29T13:54:16;3.95;;;1.67;;
26872;SDS011;14445;53.056;4.804;2022-07-29T13:56:41;2.53;;;1.60;;
26872;SDS011;14445;53.056;4.804;2022-07-29T13:59:07;3.65;;;1.80;;
26872;SDS011;14445;53.056;4.804;2022-07-29T14:01:33;3.35;;;1.65;;
26872;SDS011;14445;53.056;4.804;2022-07-29T14:03:59;2.33;;;1.48;;
26872;SDS011;14445;53.056;4.804;2022-07-29T14:06:25;4.10;;;1.63;;
26872;SDS011;14445;53.056;4.804;2022-07-29T14:08:50;3.25;;;1.83;;
26872;SDS011;14445;53.056;4.804;2022-07-29T14:11:16;3.38;;;1.80;;
26872;SDS011;14445;53.056;4.804;2022-07-29T14:13:41;3.78;;;1.70;;
26872;SDS011;14445;53.056;4.804;2022-07-29T14:16:07;4.05;;;1.92;;
26872;SDS011;14445;53.056;4.804;2022-07-29T14:18:32;3.88;;;1.75;;
26872;SDS011;14445;53.056;4.804;2022-07-29T14:20:58;3.17;;;1.88;;
26872;SDS011;14445;53.056;4.804;2022-07-29T14:23:24;2.90;;;1.75;;
26872;SDS011;14445;53.056;4.804;2022-07-29T14:25:49;4.38;;;1.80;;
26872;SDS011;14445;53.056;4.804;2022-07-29T14:28:15;4.13;;;2.13;;
26872;SDS011;14445;53.056;4.804;2022-07-29T14:30:40;4.53;;;1.85;;
26872;SDS011;14445;53.056;4.804;2022-07-29T14:33:06;4.38;;;1.90;;
26872;SDS011;14445;53.056;4.804;2022-07-29T14:35:32;5.55;;;2.05;;
26872;SDS011;14445;53.056;4.804;2022-07-29T14:37:58;4.28;;;1.77;;
26872;SDS011;14445;53.056;4.804;2022-07-29T14:40:23;3.00;;;1.65;;
26872;SDS011;14445;53.056;4.804;2022-07-29T14:42:50;2.55;;;1.40;;
26872;SDS011;14445;53.056;4.804;2022-07-29T14:45:16;2.25;;;1.60;;
26872;SDS011;14445;53.056;4.804;2022-07-29T14:47:41;4.60;;;1.73;;
26872;SDS011;14445;53.056;4.804;2022-07-29T14:50:07;3.97;;;1.70;;
26872;SDS011;14445;53.056;4.804;2022-07-29T14:52:33;3.08;;;1.85;;
26872;SDS011;14445;53.056;4.804;2022-07-29T14:54:59;4.05;;;1.80;;
26872;SDS011;14445;53.056;4.804;2022-07-29T14:57:25;3.53;;;1.80;;
26872;SDS011;14445;53.056;4.804;2022-07-29T14:59:51;3.03;;;1.83;;
26872;SDS011;14445;53.056;4.804;2022-07-29T15:02:16;2.08;;;1.50;;
26872;SDS011;14445;53.056;4.804;2022-07-29T15:04:42;3.13;;;1.75;;
26872;SDS011;14445;53.056;4.804;2022-07-29T15:07:08;4.95;;;1.70;;
26872;SDS011;14445;53.056;4.804;2022-07-29T15:09:34;3.42;;;1.92;;
26872;SDS011;14445;53.056;4.804;2022-07-29T15:11:59;3.10;;;1.80;;
26872;SDS011;14445;53.056;4.804;2022-07-29T15:14:25;5.10;;;1.80;;
26872;SDS011;14445;53.056;4.804;2022-07-29T15:16:50;3.67;;;2.00;;
26872;SDS011;14445;53.056;4.804;2022-07-29T15:19:16;3.72;;;1.75;;
26872;SDS011;14445;53.056;4.804;2022-07-29T15:21:41;5.50;;;2.17;;
26872;SDS011;14445;53.056;4.804;2022-07-29T15:24:07;4.68;;;2.20;;
26872;SDS011;14445;53.056;4.804;2022-07-29T15:26:33;2.92;;;1.80;;
26872;SDS011;14445;53.056;4.804;2022-07-29T15:28:59;5.40;;;2.00;;
26872;SDS011;14445;53.056;4.804;2022-07-29T15:31:24;4.90;;;2.03;;
26872;SDS011;14445;53.056;4.804;2022-07-29T15:33:50;4.47;;;1.95;;
26872;SDS011;14445;53.056;4.804;2022-07-29T15:36:15;3.88;;;1.80;;